Time;durP1;ratioP1;P1;durP2;ratioP2;P2;SDS_P1;SDS_P2;PMS_P1;PMS_P2;Temp;Humidity;BMP_temperature;BMP_pressure;BME280_temperature;BME280_humidity;BME280_pressure;Samples;Min_cycle;Max_cycle;Signal;HPM_P1;HPM_P2
2020/12/15 00:04:48;;;;;;;9.40;4.40;;;;;9.30;100090.00;;;;10487889;28;20212;-75
2020/12/15 00:09:50;;;;;;;6.07;3.73;;;;;9.30;100085.00;;;;10487714;28;20193;-75
2020/12/15 00:14:51;;;;;;;9.63;4.17;;;;;9.30;100091.00;;;;10448930;28;20194;-75
2020/12/15 00:19:53;;;;;;;6.40;3.83;;;;;9.30;100102.00;;;;10443191;28;20264;-75
2020/12/15 00:24:54;;;;;;;7.60;3.97;;;;;9.30;100081.00;;;;10427014;28;20190;-75
2020/12/15 00:29:55;;;;;;;6.33;3.97;;;;;9.30;100102.00;;;;10457820;28;20533;-75
2020/12/15 00:34:57;;;;;;;6.83;4.20;;;;;9.30;100108.00;;;;10458087;28;20190;-75
2020/12/15 00:39:58;;;;;;;6.03;4.23;;;;;9.30;100106.00;;;;10442339;28;20218;-74
2020/12/15 00:45:00;;;;;;;8.13;4.93;;;;;9.30;100096.00;;;;10460541;28;20221;-74
2020/12/15 00:50:01;;;;;;;8.43;4.97;;;;;9.30;100095.00;;;;10458814;28;20198;-74
2020/12/15 00:55:03;;;;;;;9.83;5.47;;;;;9.30;100096.00;;;;10425653;28;20243;-75
2020/12/15 01:00:10;;;;;;;5.87;4.63;;;;;9.30;100108.00;;;;10425388;28;20210;-75
2020/12/15 01:05:13;;;;;;;6.47;5.13;;;;;9.30;100105.00;;;;10441786;28;20202;-75
2020/12/15 01:10:18;;;;;;;8.47;5.83;;;;;9.30;100102.00;;;;10441395;28;20198;-75
2020/12/15 01:15:22;;;;;;;9.13;6.13;;;;;9.30;100105.00;;;;10425000;28;20194;-75
2020/12/15 01:20:25;;;;;;;9.90;6.30;;;;;9.30;100105.00;;;;10425098;28;20339;-75
2020/12/15 01:25:27;;;;;;;9.80;6.37;;;;;9.40;100106.00;;;;10423287;28;20197;-75
2020/12/15 01:30:33;;;;;;;10.00;6.47;;;;;9.40;100098.00;;;;10399811;28;20821;-75
2020/12/15 01:35:54;;;;;;;9.97;6.30;;;;;9.40;100099.00;;;;10404613;28;20194;-75
2020/12/15 01:41:11;;;;;;;9.30;6.20;;;;;9.40;100095.00;;;;10399029;28;20217;-75
2020/12/15 01:46:14;;;;;;;9.60;5.70;;;;;9.40;100107.00;;;;10456462;28;20299;-75
2020/12/15 01:51:16;;;;;;;12.07;6.70;;;;;9.40;100115.00;;;;10439866;28;20221;-75
2020/12/15 01:56:19;;;;;;;10.20;5.73;;;;;9.40;100118.00;;;;10407121;28;20201;-75
2020/12/15 02:01:22;;;;;;;9.77;5.87;;;;;9.40;100131.00;;;;10440042;28;20234;-75
2020/12/15 02:06:24;;;;;;;13.83;6.40;;;;;9.40;100136.00;;;;10456040;28;20249;-75
2020/12/15 02:11:48;;;;;;;9.57;5.50;;;;;9.40;100134.00;;;;10425374;28;20209;-75
2020/12/15 02:16:50;;;;;;;10.10;5.30;;;;;9.40;100125.00;;;;10423755;28;20210;-75
2020/12/15 02:22:00;;;;;;;7.70;5.20;;;;;9.40;100119.00;;;;10438844;28;20202;-75
2020/12/15 02:27:08;;;;;;;6.87;5.07;;;;;9.40;100128.00;;;;10438823;28;20193;-75
2020/12/15 02:32:14;;;;;;;7.50;5.43;;;;;9.40;100141.00;;;;10438777;28;20194;-75
2020/12/15 02:37:22;;;;;;;9.67;5.60;;;;;9.40;100135.00;;;;10455128;28;20198;-75
2020/12/15 02:42:31;;;;;;;11.00;5.70;;;;;9.40;100140.00;;;;10454299;28;20222;-75
2020/12/15 02:47:34;;;;;;;6.57;4.80;;;;;9.40;100146.00;;;;10397593;28;20199;-75
2020/12/15 02:52:36;;;;;;;6.37;5.43;;;;;9.50;100149.00;;;;10396824;28;20297;-75
2020/12/15 02:57:40;;;;;;;5.73;4.77;;;;;9.50;100159.00;;;;10397320;28;20190;-75
2020/12/15 03:02:48;;;;;;;11.50;6.47;;;;;9.50;100164.00;;;;10435301;28;20573;-75
2020/12/15 03:07:54;;;;;;;7.93;5.60;;;;;9.50;100165.00;;;;10437724;28;20672;-75
2020/12/15 03:12:57;;;;;;;8.93;6.27;;;;;9.50;100165.00;;;;10437453;28;20238;-75
2020/12/15 03:17:59;;;;;;;7.70;6.00;;;;;9.50;100156.00;;;;10454447;28;20194;-75
2020/12/15 03:23:00;;;;;;;9.57;6.03;;;;;9.40;100162.00;;;;10437572;28;20217;-75
2020/12/15 03:28:07;;;;;;;9.40;7.33;;;;;9.50;100162.00;;;;10421480;28;20206;-75
2020/12/15 03:33:14;;;;;;;11.50;7.73;;;;;9.50;100172.00;;;;10453613;28;20695;-75
2020/12/15 03:38:15;;;;;;;12.33;8.30;;;;;9.40;100157.00;;;;10454253;28;20692;-75
2020/12/15 03:43:25;;;;;;;11.23;8.53;;;;;9.40;100156.00;;;;10405345;28;20234;-75
2020/12/15 03:48:43;;;;;;;10.93;8.47;;;;;9.50;100153.00;;;;10410064;28;20198;-75
2020/12/15 03:53:46;;;;;;;11.07;8.83;;;;;9.50;100149.00;;;;10428674;28;20278;-75
2020/12/15 03:58:48;;;;;;;16.63;8.33;;;;;9.50;100160.00;;;;10428247;28;20201;-75
2020/12/15 04:03:49;;;;;;;14.83;7.73;;;;;9.50;100170.00;;;;10460273;28;20213;-75
2020/12/15 04:08:57;;;;;;;13.77;8.27;;;;;9.50;100166.00;;;;10460467;28;20202;-75
2020/12/15 04:13:59;;;;;;;11.40;8.27;;;;;9.40;100154.00;;;;10426873;28;20984;-75
2020/12/15 04:19:00;;;;;;;10.03;7.33;;;;;9.40;100155.00;;;;10426820;28;20197;-75
2020/12/15 04:24:03;;;;;;;12.40;7.80;;;;;9.30;100154.00;;;;10410395;28;20287;-75
2020/12/15 04:29:12;;;;;;;11.93;6.67;;;;;9.30;100159.00;;;;10443783;28;20206;-75
2020/12/15 04:34:26;;;;;;;10.67;7.00;;;;;9.30;100155.00;;;;10460285;28;20228;-75
2020/12/15 04:39:30;;;;;;;11.93;6.97;;;;;9.30;100158.00;;;;10442552;28;20194;-75
2020/12/15 04:44:34;;;;;;;8.77;6.90;;;;;9.40;100168.00;;;;10459191;28;20234;-75
2020/12/15 04:49:47;;;;;;;9.53;6.43;;;;;9.30;100160.00;;;;10442100;28;20596;-75
2020/12/15 04:54:52;;;;;;;7.23;5.77;;;;;9.40;100166.00;;;;10404790;28;81218;-75
2020/12/15 05:00:04;;;;;;;8.63;6.63;;;;;9.40;100170.00;;;;10418726;28;20248;-75
2020/12/15 05:05:37;;;;;;;8.23;6.47;;;;;9.40;100158.00;;;;10416433;28;20198;-75
2020/12/15 05:10:41;;;;;;;7.00;5.43;;;;;9.40;100147.00;;;;10407346;28;20209;-75
2020/12/15 05:16:13;;;;;;;7.73;6.23;;;;;9.40;100156.00;;;;10419021;28;20218;-75
2020/12/15 05:21:20;;;;;;;6.87;5.57;;;;;9.40;100154.00;;;;10441641;28;20242;-75
2020/12/15 05:26:29;;;;;;;6.33;5.37;;;;;9.30;100163.00;;;;10439658;28;20294;-75
2020/12/15 05:31:43;;;;;;;7.70;5.20;;;;;9.30;100167.00;;;;10383488;28;20904;-75
2020/12/15 05:37:07;;;;;;;7.17;5.40;;;;;9.30;100162.00;;;;10377415;28;20211;-75
2020/12/15 05:42:27;;;;;;;6.83;5.30;;;;;9.30;100167.00;;;;10393748;28;20259;-75
2020/12/15 05:47:31;;;;;;;6.37;5.30;;;;;9.30;100178.00;;;;10417337;28;20250;-75
2020/12/15 05:52:38;;;;;;;7.37;4.77;;;;;9.30;100170.00;;;;10369006;28;20298;-75
2020/12/15 05:57:44;;;;;;;9.03;4.70;;;;;9.30;100183.00;;;;10417664;28;20199;-75
2020/12/15 06:03:02;;;;;;;5.30;4.70;;;;;9.20;100191.00;;;;10415511;28;20210;-75
2020/12/15 06:08:05;;;;;;;6.50;5.03;;;;;9.10;100188.00;;;;10414972;28;20199;-75
2020/12/15 06:13:07;;;;;;;6.57;5.20;;;;;9.10;100173.00;;;;10381644;28;20199;-75
2020/12/15 06:18:11;;;;;;;5.00;4.50;;;;;9.10;100167.00;;;;10399374;28;20202;-75
2020/12/15 06:23:14;;;;;;;5.73;4.67;;;;;9.10;100164.00;;;;10414514;28;20250;-75
2020/12/15 06:28:15;;;;;;;5.23;4.57;;;;;9.10;100173.00;;;;10414571;28;20210;-75
2020/12/15 06:33:17;;;;;;;5.33;4.50;;;;;9.10;100188.00;;;;10398354;28;20210;-75
2020/12/15 06:38:20;;;;;;;6.43;4.37;;;;;9.10;100186.00;;;;10414708;28;20203;-75
2020/12/15 06:43:29;;;;;;;5.80;4.50;;;;;9.20;100187.00;;;;10413795;28;20234;-75
2020/12/15 06:48:32;;;;;;;5.77;4.93;;;;;9.20;100172.00;;;;10385187;28;20264;-75
2020/12/15 06:53:34;;;;;;;5.87;4.93;;;;;9.20;100178.00;;;;10414826;28;20688;-75
2020/12/15 06:58:36;;;;;;;6.77;4.87;;;;;9.10;100199.00;;;;10416044;28;20321;-75
2020/12/15 07:03:42;;;;;;;5.90;5.30;;;;;9.10;100215.00;;;;10396907;28;20635;-76
2020/12/15 07:08:43;;;;;;;5.20;4.33;;;;;9.10;100204.00;;;;10380877;28;20199;-76
2020/12/15 07:13:55;;;;;;;8.07;4.50;;;;;9.10;100209.00;;;;10413629;28;20205;-76
2020/12/15 07:18:56;;;;;;;5.37;4.47;;;;;9.10;100229.00;;;;10389886;28;20201;-76
2020/12/15 07:24:01;;;;;;;6.03;4.67;;;;;9.10;100233.00;;;;10439434;28;20216;-76
2020/12/15 07:29:03;;;;;;;5.50;5.00;;;;;9.20;100250.00;;;;10433669;28;20203;-76
2020/12/15 07:34:15;;;;;;;5.27;4.67;;;;;9.20;100258.00;;;;10423716;28;20194;-76
2020/12/15 07:39:17;;;;;;;5.37;4.87;;;;;9.30;100249.00;;;;10388023;28;20619;-76
2020/12/15 07:44:19;;;;;;;6.40;4.60;;;;;9.30;100246.00;;;;10399516;28;20230;-76
2020/12/15 07:49:21;;;;;;;6.97;5.10;;;;;9.30;100259.00;;;;10402798;28;20194;-76
2020/12/15 07:54:23;;;;;;;5.73;5.10;;;;;9.30;100257.00;;;;10388718;28;20210;-76
2020/12/15 07:59:25;;;;;;;5.77;4.93;;;;;9.40;100256.00;;;;10394025;28;20259;-75
2020/12/15 08:04:26;;;;;;;5.93;4.73;;;;;9.40;100268.00;;;;10371970;28;20238;-75
2020/12/15 08:09:30;;;;;;;6.00;5.10;;;;;9.50;100281.00;;;;10396423;28;20198;-76
2020/12/15 08:14:32;;;;;;;6.47;4.80;;;;;9.50;100290.00;;;;10401123;28;20202;-76
2020/12/15 08:19:34;;;;;;;6.13;5.00;;;;;9.60;100297.00;;;;10413659;28;20190;-77
2020/12/15 08:24:38;;;;;;;6.97;5.27;;;;;9.60;100298.00;;;;10416527;28;20218;-76
2020/12/15 08:29:40;;;;;;;6.00;5.40;;;;;9.60;100287.00;;;;10365993;28;20218;-76
2020/12/15 08:34:42;;;;;;;6.50;5.47;;;;;9.70;100292.00;;;;10382942;28;20232;-76
2020/12/15 08:39:45;;;;;;;6.80;5.47;;;;;9.70;100309.00;;;;10381407;28;20210;-76
2020/12/15 08:44:48;;;;;;;6.70;5.83;;;;;9.70;100322.00;;;;10384774;28;21263;-76
2020/12/15 08:49:55;;;;;;;7.87;5.50;;;;;9.70;100326.00;;;;10373957;28;20266;-76
2020/12/15 08:54:56;;;;;;;7.07;5.53;;;;;9.70;100339.00;;;;10408823;28;20198;-76
2020/12/15 09:00:14;;;;;;;7.03;5.97;;;;;9.80;100342.00;;;;10390485;28;21255;-76
2020/12/15 09:05:16;;;;;;;8.77;5.63;;;;;9.80;100336.00;;;;10400658;28;20202;-76
2020/12/15 09:10:23;;;;;;;5.97;5.33;;;;;9.90;100352.00;;;;10445284;28;20202;-76
2020/12/15 09:15:24;;;;;;;7.93;6.17;;;;;9.90;100353.00;;;;10439198;28;20863;-76
2020/12/15 09:20:27;;;;;;;6.70;6.00;;;;;9.90;100350.00;;;;10438885;28;20194;-76
2020/12/15 09:25:29;;;;;;;8.50;5.87;;;;;9.90;100354.00;;;;10423445;28;20194;-76
2020/12/15 09:30:31;;;;;;;8.53;6.33;;;;;9.90;100364.00;;;;10439095;28;20585;-76
2020/12/15 09:35:32;;;;;;;7.50;6.30;;;;;9.90;100369.00;;;;10454985;28;20186;-75
2020/12/15 09:40:34;;;;;;;8.23;6.23;;;;;9.90;100369.00;;;;10454899;28;20289;-76
2020/12/15 09:45:36;;;;;;;8.67;6.93;;;;;10.00;100372.00;;;;10421673;28;20264;-76
2020/12/15 09:50:37;;;;;;;11.80;8.00;;;;;10.00;100372.00;;;;10453266;28;20194;-76
2020/12/15 09:55:39;;;;;;;9.23;7.50;;;;;10.00;100379.00;;;;10454458;28;20190;-76
2020/12/15 10:00:41;;;;;;;12.23;9.50;;;;;10.10;100383.00;;;;10436886;28;20248;-75
2020/12/15 10:05:42;;;;;;;11.83;8.83;;;;;10.10;100391.00;;;;10454489;28;20190;-75
2020/12/15 10:10:43;;;;;;;13.37;9.00;;;;;10.10;100390.00;;;;10437555;28;20201;-75
2020/12/15 10:15:45;;;;;;;13.77;10.43;;;;;10.20;100392.00;;;;10418133;28;20222;-75
2020/12/15 10:20:48;;;;;;;16.60;10.17;;;;;10.20;100406.00;;;;10453048;28;20209;-75
2020/12/15 10:25:50;;;;;;;18.37;11.93;;;;;10.20;100412.00;;;;10454149;28;20200;-76
2020/12/15 10:30:51;;;;;;;16.43;12.83;;;;;10.20;100410.00;;;;10436777;28;20644;-77
2020/12/15 10:35:54;;;;;;;14.43;12.27;;;;;10.20;100415.00;;;;10437024;28;20194;-77
2020/12/15 10:40:57;;;;;;;18.57;13.40;;;;;10.30;100427.00;;;;10437148;28;20253;-76
2020/12/15 10:45:58;;;;;;;22.07;14.03;;;;;10.30;100433.00;;;;10404080;28;20226;-76
2020/12/15 10:51:00;;;;;;;18.47;13.07;;;;;10.30;100430.00;;;;10415028;28;20194;-76
2020/12/15 10:56:01;;;;;;;16.77;12.33;;;;;10.30;100431.00;;;;10377370;28;20229;-76
2020/12/15 11:01:05;;;;;;;20.13;15.60;;;;;10.30;100434.00;;;;10362736;28;20245;-77
2020/12/15 11:06:07;;;;;;;18.73;12.20;;;;;10.30;100439.00;;;;10418880;28;20206;-76
2020/12/15 11:11:12;;;;;;;18.57;13.00;;;;;10.30;100428.00;;;;10411631;28;20199;-77
2020/12/15 11:16:20;;;;;;;19.00;13.67;;;;;10.50;100437.00;;;;10449646;28;20753;-77
2020/12/15 11:21:22;;;;;;;17.97;11.67;;;;;10.60;100426.00;;;;10435915;28;20198;-76
2020/12/15 11:26:23;;;;;;;16.33;12.90;;;;;10.60;100428.00;;;;10435744;28;20187;-76
2020/12/15 11:31:24;;;;;;;17.63;12.37;;;;;10.70;100438.00;;;;10419888;28;20214;-77
2020/12/15 11:36:28;;;;;;;16.17;11.70;;;;;10.70;100436.00;;;;10436129;28;20194;-76
2020/12/15 11:41:30;;;;;;;14.87;11.47;;;;;10.80;100438.00;;;;10436051;28;20217;-76
2020/12/15 11:46:32;;;;;;;15.33;12.60;;;;;10.70;100437.00;;;;10435310;28;20234;-76
2020/12/15 11:51:35;;;;;;;14.30;11.73;;;;;10.60;100447.00;;;;10453032;28;20248;-76
2020/12/15 11:56:37;;;;;;;15.17;11.97;;;;;10.60;100446.00;;;;10435705;28;20278;-76
2020/12/15 12:01:38;;;;;;;15.10;11.93;;;;;10.60;100455.00;;;;10434958;28;20256;-76
2020/12/15 12:06:39;;;;;;;19.70;13.93;;;;;10.50;100460.00;;;;10435081;28;20673;-76
2020/12/15 12:11:41;;;;;;;18.07;12.17;;;;;10.60;100460.00;;;;10458460;28;20190;-76
2020/12/15 12:16:42;;;;;;;18.67;13.40;;;;;10.90;100468.00;;;;10441732;28;20226;-76
2020/12/15 12:21:44;;;;;;;15.37;12.13;;;;;11.10;100474.00;;;;10442102;28;20206;-75
2020/12/15 12:26:50;;;;;;;15.30;12.67;;;;;11.00;100483.00;;;;10422736;28;20848;-76
2020/12/15 12:31:52;;;;;;;15.63;12.10;;;;;10.90;100480.00;;;;10425275;28;20248;-76
2020/12/15 12:36:53;;;;;;;20.20;12.83;;;;;10.70;100484.00;;;;10424999;28;20632;-76
2020/12/15 12:41:55;;;;;;;16.40;13.97;;;;;10.80;100481.00;;;;10441240;28;20556;-76
2020/12/15 12:46:56;;;;;;;16.73;13.67;;;;;11.00;100485.00;;;;10425139;28;20221;-76
2020/12/15 12:51:58;;;;;;;17.03;13.57;;;;;11.20;100487.00;;;;10425287;28;20221;-76
2020/12/15 12:56:59;;;;;;;19.73;15.63;;;;;11.90;100472.00;;;;10440946;28;20226;-76
2020/12/15 13:02:01;;;;;;;20.27;15.77;;;;;12.00;100488.00;;;;10459082;28;20198;-76
2020/12/15 13:07:03;;;;;;;19.57;15.17;;;;;12.50;100485.00;;;;10450156;28;20204;-76
2020/12/15 13:12:04;;;;;;;16.33;13.00;;;;;12.70;100469.00;;;;10454717;28;20187;-76
2020/12/15 13:17:07;;;;;;;16.97;12.90;;;;;12.70;100470.00;;;;10453055;28;20244;-76
2020/12/15 13:22:09;;;;;;;13.90;12.00;;;;;12.40;100482.00;;;;10439844;28;20209;-76
2020/12/15 13:27:11;;;;;;;19.73;11.80;;;;;12.20;100502.00;;;;10445789;28;20548;-77
2020/12/15 13:32:12;;;;;;;13.13;10.53;;;;;12.20;100484.00;;;;10440024;28;20198;-77
2020/12/15 13:37:14;;;;;;;15.70;11.20;;;;;12.20;100497.00;;;;10439702;28;20243;-77
2020/12/15 13:42:15;;;;;;;11.00;8.90;;;;;11.90;100512.00;;;;10439198;28;20754;-76
2020/12/15 13:47:17;;;;;;;10.70;9.27;;;;;11.70;100517.00;;;;10455258;28;20263;-76
2020/12/15 13:54:58;;;;;;;12.20;10.13;;;;;11.50;100531.00;;;;10501136;27;20637;-76
2020/12/15 14:00:00;;;;;;;13.90;10.00;;;;;11.50;100540.00;;;;10489168;28;20204;-76
2020/12/15 14:05:01;;;;;;;13.53;10.13;;;;;11.60;100533.00;;;;10507099;28;20553;-76
2020/12/15 14:10:05;;;;;;;12.53;10.43;;;;;11.70;100551.00;;;;10494791;28;20229;-76
2020/12/15 14:15:06;;;;;;;13.00;9.00;;;;;11.40;100558.00;;;;10454987;28;20293;-76
2020/12/15 14:20:07;;;;;;;11.30;7.90;;;;;11.10;100569.00;;;;10443741;28;20194;-76
2020/12/15 14:25:09;;;;;;;14.33;8.37;;;;;11.10;100571.00;;;;10455345;28;20201;-76
2020/12/15 14:30:10;;;;;;;13.10;8.80;;;;;11.20;100600.00;;;;10472217;28;20262;-76
2020/12/15 14:35:11;;;;;;;10.80;7.37;;;;;11.00;100600.00;;;;10468961;28;20596;-76
2020/12/15 14:40:13;;;;;;;12.53;7.70;;;;;10.70;100599.00;;;;10446587;28;20277;-76
2020/12/15 14:45:14;;;;;;;9.67;7.67;;;;;10.40;100610.00;;;;10485733;28;20599;-75
2020/12/15 14:50:16;;;;;;;11.83;8.57;;;;;10.20;100617.00;;;;10443229;28;20205;-76
2020/12/15 14:55:17;;;;;;;17.30;9.23;;;;;10.00;100627.00;;;;10490027;28;20195;-76
2020/12/15 15:00:18;;;;;;;13.80;8.53;;;;;9.90;100643.00;;;;10463341;28;20683;-76
2020/12/15 15:05:20;;;;;;;16.20;9.47;;;;;9.80;100651.00;;;;10432455;28;20190;-76
2020/12/15 15:10:22;;;;;;;13.60;9.60;;;;;9.60;100660.00;;;;10443026;28;20252;-76
2020/12/15 15:15:23;;;;;;;16.87;10.20;;;;;9.40;100663.00;;;;10416714;28;20198;-76
2020/12/15 15:20:24;;;;;;;14.80;10.40;;;;;9.20;100672.00;;;;10435349;28;20239;-75
2020/12/15 15:25:25;;;;;;;16.33;9.30;;;;;9.10;100665.00;;;;10454259;28;20256;-75
2020/12/15 15:30:27;;;;;;;15.60;10.60;;;;;9.00;100676.00;;;;10439598;28;20216;-76
2020/12/15 15:35:29;;;;;;;20.03;10.47;;;;;8.90;100679.00;;;;10441415;28;20201;-76
2020/12/15 15:40:30;;;;;;;17.53;10.50;;;;;8.80;100681.00;;;;10458596;28;20236;-76
2020/12/15 15:45:31;;;;;;;18.33;10.83;;;;;8.60;100682.00;;;;10460095;28;20696;-76
2020/12/15 15:50:33;;;;;;;12.90;10.87;;;;;8.50;100692.00;;;;10478016;28;20214;-76
2020/12/15 15:55:36;;;;;;;17.63;11.37;;;;;8.40;100699.00;;;;10424433;28;20186;-76
2020/12/15 16:00:37;;;;;;;23.03;13.17;;;;;8.40;100702.00;;;;10447417;28;20179;-76
2020/12/15 16:05:39;;;;;;;25.20;15.77;;;;;8.30;100703.00;;;;10498462;28;20190;-76
2020/12/15 16:10:40;;;;;;;27.03;15.97;;;;;8.30;100713.00;;;;10467840;28;20708;-76
2020/12/15 16:15:41;;;;;;;21.07;15.63;;;;;8.20;100714.00;;;;10423124;28;20190;-76
2020/12/15 16:20:43;;;;;;;20.93;15.33;;;;;8.10;100720.00;;;;10458079;28;20193;-76
2020/12/15 16:25:44;;;;;;;21.13;16.00;;;;;8.00;100733.00;;;;10471568;28;20244;-76
2020/12/15 16:30:45;;;;;;;25.87;18.73;;;;;7.90;100734.00;;;;10454099;28;20262;-76
2020/12/15 16:36:06;;;;;;;33.97;19.87;;;;;7.90;100741.00;;;;10448161;28;20280;-75
2020/12/15 16:41:11;;;;;;;27.07;18.63;;;;;7.90;100746.00;;;;10431993;28;20194;-76
2020/12/15 16:46:13;;;;;;;27.30;18.50;;;;;7.90;100742.00;;;;10397654;28;20222;-76
2020/12/15 16:51:15;;;;;;;29.80;19.00;;;;;7.70;100743.00;;;;10430747;28;20573;-76
2020/12/15 16:56:17;;;;;;;29.37;18.60;;;;;7.50;100757.00;;;;10422698;28;20198;-76
2020/12/15 17:01:18;;;;;;;25.47;18.03;;;;;7.40;100755.00;;;;10425079;28;20629;-76
2020/12/15 17:06:20;;;;;;;29.50;19.37;;;;;7.30;100770.00;;;;10453907;28;20202;-76
2020/12/15 17:11:23;;;;;;;30.47;19.37;;;;;7.30;100765.00;;;;10431949;28;20202;-76
2020/12/15 17:16:24;;;;;;;27.40;17.57;;;;;7.40;100770.00;;;;10441022;28;20264;-76
2020/12/15 17:21:33;;;;;;;31.17;18.10;;;;;7.40;100764.00;;;;10420832;28;20193;-76
2020/12/15 17:26:35;;;;;;;23.57;16.20;;;;;7.40;100769.00;;;;10434664;28;20623;-76
2020/12/15 17:31:36;;;;;;;30.57;17.27;;;;;7.40;100774.00;;;;10412382;28;20268;-76
2020/12/15 17:36:38;;;;;;;24.93;17.00;;;;;7.40;100780.00;;;;10392232;28;20197;-76
2020/12/15 17:41:39;;;;;;;27.87;17.53;;;;;7.30;100778.00;;;;10453770;28;20953;-76
2020/12/15 17:46:41;;;;;;;25.47;16.80;;;;;7.30;100773.00;;;;10454747;28;20276;-76
2020/12/15 17:51:49;;;;;;;30.17;18.10;;;;;7.30;100772.00;;;;10437255;28;20210;-76
2020/12/15 17:56:51;;;;;;;28.03;18.57;;;;;7.30;100769.00;;;;10436779;28;20194;-75
2020/12/15 18:01:52;;;;;;;28.80;15.90;;;;;7.20;100782.00;;;;10404044;28;20232;-76
2020/12/15 18:06:55;;;;;;;26.13;17.57;;;;;7.20;100783.00;;;;10471723;28;20519;-76
2020/12/15 18:11:57;;;;;;;30.43;18.23;;;;;7.10;100786.00;;;;10433495;28;20205;-76
2020/12/15 18:16:59;;;;;;;32.43;19.80;;;;;7.00;100784.00;;;;10456704;28;20290;-76
2020/12/15 18:22:05;;;;;;;33.33;17.87;;;;;6.80;100788.00;;;;10428742;28;20186;-76
2020/12/15 18:27:07;;;;;;;29.00;15.83;;;;;6.80;100785.00;;;;10419681;28;20216;-76
2020/12/15 18:32:13;;;;;;;36.07;20.40;;;;;7.00;100790.00;;;;10421964;28;20271;-76
2020/12/15 18:37:15;;;;;;;33.47;20.83;;;;;7.00;100803.00;;;;10436707;28;20668;-77
2020/12/15 18:42:16;;;;;;;31.30;20.53;;;;;6.90;100805.00;;;;10416164;28;20226;-76
2020/12/15 18:47:18;;;;;;;29.20;18.73;;;;;6.90;100809.00;;;;10428862;28;20649;-76
2020/12/15 18:52:19;;;;;;;24.40;17.77;;;;;6.90;100800.00;;;;10470153;28;20220;-76
2020/12/15 18:57:25;;;;;;;28.50;18.33;;;;;6.90;100814.00;;;;10450910;28;20201;-76
2020/12/15 19:02:32;;;;;;;25.03;16.73;;;;;6.80;100820.00;;;;10444225;28;20179;-76
2020/12/15 19:07:38;;;;;;;24.30;15.47;;;;;6.80;100815.00;;;;10442622;28;20191;-76
2020/12/15 19:12:45;;;;;;;26.80;14.97;;;;;6.80;100820.00;;;;10444796;28;20695;-76
2020/12/15 19:17:51;;;;;;;27.17;15.70;;;;;6.90;100812.00;;;;10455120;28;20204;-76
2020/12/15 19:22:53;;;;;;;26.03;15.73;;;;;6.90;100820.00;;;;10467174;28;20277;-76
2020/12/15 19:27:59;;;;;;;24.37;17.37;;;;;6.90;100822.00;;;;10472286;28;20190;-77
2020/12/15 19:33:05;;;;;;;27.43;17.70;;;;;6.80;100821.00;;;;10440930;28;20202;-76
2020/12/15 19:38:06;;;;;;;23.97;17.47;;;;;6.70;100830.00;;;;10458117;28;20285;-76
2020/12/15 19:43:13;;;;;;;28.47;17.87;;;;;6.50;100846.00;;;;10451959;28;20342;-76
2020/12/15 19:48:19;;;;;;;26.83;16.03;;;;;6.40;100850.00;;;;10471288;28;20703;-76
2020/12/15 19:53:26;;;;;;;29.77;18.83;;;;;6.50;100866.00;;;;10436749;28;20209;-76
2020/12/15 19:58:32;;;;;;;29.27;19.77;;;;;6.50;100864.00;;;;10436245;28;20197;-76
2020/12/15 20:03:38;;;;;;;28.90;19.60;;;;;6.40;100875.00;;;;10467593;28;20252;-76
2020/12/15 20:08:44;;;;;;;32.80;19.23;;;;;6.40;100872.00;;;;10412763;28;20201;-76
2020/12/15 20:13:46;;;;;;;31.77;20.63;;;;;6.40;100878.00;;;;10437542;28;20202;-76
2020/12/15 20:18:52;;;;;;;30.17;21.80;;;;;6.40;100889.00;;;;10463182;28;20205;-76
2020/12/15 20:23:59;;;;;;;28.20;21.20;;;;;6.50;100900.00;;;;10490836;28;20272;-76
2020/12/15 20:29:07;;;;;;;32.67;22.33;;;;;6.40;100906.00;;;;10439623;28;20731;-76
2020/12/15 20:34:13;;;;;;;29.53;21.73;;;;;6.40;100915.00;;;;10468490;28;20198;-76
2020/12/15 20:39:19;;;;;;;26.70;21.57;;;;;6.50;100918.00;;;;10456772;28;20259;-76
2020/12/15 20:44:26;;;;;;;33.23;23.60;;;;;6.50;100928.00;;;;10457945;28;20225;-76
2020/12/15 20:49:33;;;;;;;35.87;24.83;;;;;6.60;100921.00;;;;10440879;28;20195;-76
2020/12/15 20:54:39;;;;;;;33.10;23.37;;;;;6.60;100919.00;;;;10439144;28;20206;-76
2020/12/15 20:59:45;;;;;;;33.00;22.50;;;;;6.70;100924.00;;;;10441098;28;20202;-76
2020/12/15 21:04:47;;;;;;;34.87;23.17;;;;;6.80;100926.00;;;;10466369;28;20200;-76
2020/12/15 21:09:53;;;;;;;39.90;24.73;;;;;6.80;100925.00;;;;10438188;28;20190;-77
2020/12/15 21:14:54;;;;;;;34.80;22.80;;;;;6.80;100921.00;;;;10432974;28;20532;-77
2020/12/15 21:19:56;;;;;;;32.53;20.77;;;;;6.80;100934.00;;;;10488923;28;20553;-77
2020/12/15 21:25:03;;;;;;;34.40;23.40;;;;;6.80;100926.00;;;;10529316;28;20544;-77
2020/12/15 21:30:10;;;;;;;34.00;22.60;;;;;6.60;100920.00;;;;10522483;28;20592;-76
2020/12/15 21:35:16;;;;;;;39.17;24.00;;;;;6.50;100926.00;;;;10516352;28;20209;-76
2020/12/15 21:40:17;;;;;;;36.90;23.40;;;;;6.30;100939.00;;;;10513851;28;20202;-77
2020/12/15 21:45:31;;;;;;;32.47;22.80;;;;;6.20;100936.00;;;;10495939;28;20315;-77
2020/12/15 21:50:33;;;;;;;37.00;22.87;;;;;6.10;100941.00;;;;10535931;28;20204;-76
2020/12/15 21:55:34;;;;;;;36.93;21.10;;;;;6.00;100932.00;;;;10520496;28;20189;-77
2020/12/15 22:00:36;;;;;;;27.43;20.00;;;;;6.00;100931.00;;;;10460920;28;65416;-77
2020/12/15 22:05:37;;;;;;;28.97;19.37;;;;;5.90;100938.00;;;;10486298;28;20200;-77
2020/12/15 22:10:39;;;;;;;36.97;20.17;;;;;5.80;100930.00;;;;10468011;28;20190;-77
2020/12/15 22:15:40;;;;;;;29.93;20.17;;;;;6.00;100936.00;;;;10490730;28;20203;-77
2020/12/15 22:20:41;;;;;;;32.10;19.50;;;;;6.10;100938.00;;;;10526516;28;20181;-77
2020/12/15 22:25:43;;;;;;;31.90;21.27;;;;;6.20;100940.00;;;;10482160;28;20188;-77
2020/12/15 22:30:44;;;;;;;37.77;22.27;;;;;6.30;100940.00;;;;10462861;28;20181;-77
2020/12/15 22:35:47;;;;;;;33.57;19.47;;;;;6.20;100943.00;;;;10489277;28;20204;-77
2020/12/15 22:40:48;;;;;;;32.00;20.03;;;;;6.10;100946.00;;;;10487191;28;20196;-77
2020/12/15 22:45:50;;;;;;;36.97;22.67;;;;;5.90;100957.00;;;;10502760;28;20606;-77
2020/12/15 22:50:51;;;;;;;32.00;20.90;;;;;5.80;100964.00;;;;10444217;28;20210;-76
2020/12/15 22:55:53;;;;;;;34.27;22.23;;;;;5.70;100960.00;;;;10468205;28;20193;-77
2020/12/15 23:00:55;;;;;;;34.40;22.73;;;;;5.70;100967.00;;;;10458466;28;20227;-76
2020/12/15 23:05:56;;;;;;;36.37;24.10;;;;;5.70;100960.00;;;;10470885;28;20187;-77
2020/12/15 23:10:57;;;;;;;38.10;23.27;;;;;5.70;100956.00;;;;10443087;28;20704;-77
2020/12/15 23:15:59;;;;;;;39.23;24.27;;;;;5.70;100957.00;;;;10418995;28;20280;-77
2020/12/15 23:21:00;;;;;;;39.87;25.47;;;;;5.80;100946.00;;;;10444201;28;20193;-77
2020/12/15 23:26:02;;;;;;;50.23;28.03;;;;;5.70;100950.00;;;;10439037;28;20204;-76
2020/12/15 23:31:03;;;;;;;50.07;26.70;;;;;5.70;100954.00;;;;10426525;28;20202;-77
2020/12/15 23:36:04;;;;;;;49.30;27.50;;;;;5.80;100957.00;;;;10475729;28;20198;-77
2020/12/15 23:41:06;;;;;;;47.03;28.03;;;;;5.70;100957.00;;;;10458894;28;20196;-77
2020/12/15 23:46:11;;;;;;;51.40;26.93;;;;;5.70;100951.00;;;;10442821;28;20222;-76
2020/12/15 23:51:12;;;;;;;52.57;27.23;;;;;5.70;100952.00;;;;10443113;28;20240;-77
2020/12/15 23:56:14;;;;;;;50.33;27.83;;;;;5.70;100957.00;;;;10422314;28;20225;-77
